sensor_id;sensor_type;location;lat;lon;timestamp;P1;durP1;ratioP1;P2;durP2;ratioP2
6105;SDS011;3083;51.508;7.966;2023-02-03T00:01:53;77.87;;;26.57;;
6105;SDS011;3083;51.508;7.966;2023-02-03T00:04:20;55.13;;;23.27;;
6105;SDS011;3083;51.508;7.966;2023-02-03T00:06:49;64.37;;;25.60;;
6105;SDS011;3083;51.508;7.966;2023-02-03T00:09:16;71.77;;;26.97;;
6105;SDS011;3083;51.508;7.966;2023-02-03T00:11:43;63.73;;;24.50;;
6105;SDS011;3083;51.508;7.966;2023-02-03T00:14:10;59.63;;;24.10;;
6105;SDS011;3083;51.508;7.966;2023-02-03T00:16:37;69.33;;;27.50;;
6105;SDS011;3083;51.508;7.966;2023-02-03T00:19:04;74.30;;;24.90;;
6105;SDS011;3083;51.508;7.966;2023-02-03T00:21:31;62.70;;;23.90;;
6105;SDS011;3083;51.508;7.966;2023-02-03T00:24:00;59.83;;;22.30;;
6105;SDS011;3083;51.508;7.966;2023-02-03T00:26:26;58.87;;;26.50;;
6105;SDS011;3083;51.508;7.966;2023-02-03T00:28:53;59.60;;;23.80;;
6105;SDS011;3083;51.508;7.966;2023-02-03T00:31:21;54.20;;;22.97;;
6105;SDS011;3083;51.508;7.966;2023-02-03T00:33:52;58.77;;;24.07;;
6105;SDS011;3083;51.508;7.966;2023-02-03T00:36:20;54.63;;;22.30;;
6105;SDS011;3083;51.508;7.966;2023-02-03T00:38:47;52.43;;;22.00;;
6105;SDS011;3083;51.508;7.966;2023-02-03T00:41:16;59.07;;;22.43;;
6105;SDS011;3083;51.508;7.966;2023-02-03T00:43:44;58.63;;;22.40;;
6105;SDS011;3083;51.508;7.966;2023-02-03T00:46:11;49.37;;;20.73;;
6105;SDS011;3083;51.508;7.966;2023-02-03T00:48:38;62.20;;;21.57;;
6105;SDS011;3083;51.508;7.966;2023-02-03T00:51:06;49.60;;;21.77;;
6105;SDS011;3083;51.508;7.966;2023-02-03T00:53:33;52.33;;;20.93;;
6105;SDS011;3083;51.508;7.966;2023-02-03T00:56:00;48.13;;;21.03;;
6105;SDS011;3083;51.508;7.966;2023-02-03T00:58:28;51.83;;;19.60;;
6105;SDS011;3083;51.508;7.966;2023-02-03T01:00:56;50.67;;;20.60;;
6105;SDS011;3083;51.508;7.966;2023-02-03T01:03:22;50.13;;;18.60;;
6105;SDS011;3083;51.508;7.966;2023-02-03T01:05:49;58.17;;;21.33;;
6105;SDS011;3083;51.508;7.966;2023-02-03T01:08:16;47.20;;;21.60;;
6105;SDS011;3083;51.508;7.966;2023-02-03T01:10:43;40.37;;;18.27;;
6105;SDS011;3083;51.508;7.966;2023-02-03T01:13:10;48.77;;;19.23;;
6105;SDS011;3083;51.508;7.966;2023-02-03T01:15:41;45.97;;;20.70;;
6105;SDS011;3083;51.508;7.966;2023-02-03T01:18:13;53.97;;;19.40;;
6105;SDS011;3083;51.508;7.966;2023-02-03T01:20:40;47.03;;;19.00;;
6105;SDS011;3083;51.508;7.966;2023-02-03T01:23:07;47.00;;;19.50;;
6105;SDS011;3083;51.508;7.966;2023-02-03T01:25:34;42.27;;;19.33;;
6105;SDS011;3083;51.508;7.966;2023-02-03T01:28:00;44.57;;;18.40;;
6105;SDS011;3083;51.508;7.966;2023-02-03T01:30:29;48.03;;;19.30;;
6105;SDS011;3083;51.508;7.966;2023-02-03T01:32:58;51.60;;;18.97;;
6105;SDS011;3083;51.508;7.966;2023-02-03T01:35:25;45.63;;;18.60;;
6105;SDS011;3083;51.508;7.966;2023-02-03T01:37:52;40.67;;;17.77;;
6105;SDS011;3083;51.508;7.966;2023-02-03T01:40:19;39.70;;;16.70;;
6105;SDS011;3083;51.508;7.966;2023-02-03T01:42:46;42.60;;;17.97;;
6105;SDS011;3083;51.508;7.966;2023-02-03T01:45:13;40.80;;;18.27;;
6105;SDS011;3083;51.508;7.966;2023-02-03T01:47:41;46.10;;;18.17;;
6105;SDS011;3083;51.508;7.966;2023-02-03T01:50:13;45.70;;;18.13;;
6105;SDS011;3083;51.508;7.966;2023-02-03T01:52:44;40.13;;;17.87;;
6105;SDS011;3083;51.508;7.966;2023-02-03T01:55:16;45.50;;;18.13;;
6105;SDS011;3083;51.508;7.966;2023-02-03T01:57:46;43.40;;;19.43;;
6105;SDS011;3083;51.508;7.966;2023-02-03T02:00:16;41.97;;;18.30;;
6105;SDS011;3083;51.508;7.966;2023-02-03T02:02:45;41.83;;;17.87;;
6105;SDS011;3083;51.508;7.966;2023-02-03T02:05:18;41.80;;;18.73;;
6105;SDS011;3083;51.508;7.966;2023-02-03T02:07:52;47.47;;;18.90;;
6105;SDS011;3083;51.508;7.966;2023-02-03T02:10:21;44.17;;;17.27;;
6105;SDS011;3083;51.508;7.966;2023-02-03T02:12:48;40.77;;;18.13;;
6105;SDS011;3083;51.508;7.966;2023-02-03T02:15:16;41.40;;;17.70;;
6105;SDS011;3083;51.508;7.966;2023-02-03T02:17:55;46.03;;;18.30;;
6105;SDS011;3083;51.508;7.966;2023-02-03T02:20:41;50.17;;;19.10;;
6105;SDS011;3083;51.508;7.966;2023-02-03T02:23:33;46.83;;;17.93;;
6105;SDS011;3083;51.508;7.966;2023-02-03T02:29:27;50.30;;;18.07;;
6105;SDS011;3083;51.508;7.966;2023-02-03T02:32:16;33.60;;;15.77;;
6105;SDS011;3083;51.508;7.966;2023-02-03T02:34:52;37.47;;;16.10;;
6105;SDS011;3083;51.508;7.966;2023-02-03T02:37:30;38.90;;;16.77;;
6105;SDS011;3083;51.508;7.966;2023-02-03T02:40:06;42.43;;;18.43;;
6105;SDS011;3083;51.508;7.966;2023-02-03T02:42:42;51.73;;;17.83;;
6105;SDS011;3083;51.508;7.966;2023-02-03T02:45:19;39.43;;;17.47;;
6105;SDS011;3083;51.508;7.966;2023-02-03T02:47:51;48.20;;;17.87;;
6105;SDS011;3083;51.508;7.966;2023-02-03T02:50:21;40.97;;;16.10;;
6105;SDS011;3083;51.508;7.966;2023-02-03T02:52:51;42.90;;;17.57;;
6105;SDS011;3083;51.508;7.966;2023-02-03T02:55:20;42.40;;;18.80;;
6105;SDS011;3083;51.508;7.966;2023-02-03T02:57:52;38.80;;;18.20;;
6105;SDS011;3083;51.508;7.966;2023-02-03T03:00:22;37.87;;;16.43;;
6105;SDS011;3083;51.508;7.966;2023-02-03T03:02:49;41.27;;;16.90;;
6105;SDS011;3083;51.508;7.966;2023-02-03T03:05:19;37.80;;;16.40;;
6105;SDS011;3083;51.508;7.966;2023-02-03T03:07:47;43.73;;;18.70;;
6105;SDS011;3083;51.508;7.966;2023-02-03T03:10:17;40.30;;;18.43;;
6105;SDS011;3083;51.508;7.966;2023-02-03T03:12:49;37.10;;;17.40;;
6105;SDS011;3083;51.508;7.966;2023-02-03T03:15:23;45.10;;;17.27;;
6105;SDS011;3083;51.508;7.966;2023-02-03T03:17:53;42.07;;;17.93;;
6105;SDS011;3083;51.508;7.966;2023-02-03T03:20:25;44.10;;;17.83;;
6105;SDS011;3083;51.508;7.966;2023-02-03T03:22:53;44.87;;;17.30;;
6105;SDS011;3083;51.508;7.966;2023-02-03T03:25:25;42.33;;;16.43;;
6105;SDS011;3083;51.508;7.966;2023-02-03T03:27:57;38.80;;;17.57;;
6105;SDS011;3083;51.508;7.966;2023-02-03T03:30:29;33.00;;;15.20;;
6105;SDS011;3083;51.508;7.966;2023-02-03T03:33:00;42.37;;;18.10;;
6105;SDS011;3083;51.508;7.966;2023-02-03T03:35:30;37.73;;;15.60;;
6105;SDS011;3083;51.508;7.966;2023-02-03T03:38:02;38.40;;;15.67;;
6105;SDS011;3083;51.508;7.966;2023-02-03T03:40:36;38.90;;;15.80;;
6105;SDS011;3083;51.508;7.966;2023-02-03T03:43:09;39.03;;;15.60;;
6105;SDS011;3083;51.508;7.966;2023-02-03T03:45:42;37.70;;;15.13;;
6105;SDS011;3083;51.508;7.966;2023-02-03T03:48:14;37.80;;;15.07;;
6105;SDS011;3083;51.508;7.966;2023-02-03T03:50:46;33.53;;;15.30;;
6105;SDS011;3083;51.508;7.966;2023-02-03T03:53:18;29.20;;;13.93;;
6105;SDS011;3083;51.508;7.966;2023-02-03T03:55:48;30.27;;;14.90;;
6105;SDS011;3083;51.508;7.966;2023-02-03T03:58:18;37.90;;;15.90;;
6105;SDS011;3083;51.508;7.966;2023-02-03T04:00:49;33.90;;;14.50;;
6105;SDS011;3083;51.508;7.966;2023-02-03T04:03:20;33.83;;;14.67;;
6105;SDS011;3083;51.508;7.966;2023-02-03T04:05:51;32.10;;;13.07;;
6105;SDS011;3083;51.508;7.966;2023-02-03T04:08:18;28.80;;;12.83;;
6105;SDS011;3083;51.508;7.966;2023-02-03T04:10:45;31.43;;;13.17;;
6105;SDS011;3083;51.508;7.966;2023-02-03T04:13:12;25.87;;;12.40;;
6105;SDS011;3083;51.508;7.966;2023-02-03T04:15:40;25.90;;;11.90;;
6105;SDS011;3083;51.508;7.966;2023-02-03T04:18:07;26.53;;;13.50;;
6105;SDS011;3083;51.508;7.966;2023-02-03T04:20:35;22.13;;;11.10;;
6105;SDS011;3083;51.508;7.966;2023-02-03T04:23:03;24.63;;;12.27;;
6105;SDS011;3083;51.508;7.966;2023-02-03T04:25:30;26.37;;;11.63;;
6105;SDS011;3083;51.508;7.966;2023-02-03T04:27:57;26.13;;;11.37;;
6105;SDS011;3083;51.508;7.966;2023-02-03T04:30:24;27.93;;;12.87;;
6105;SDS011;3083;51.508;7.966;2023-02-03T04:32:52;24.10;;;11.47;;
6105;SDS011;3083;51.508;7.966;2023-02-03T04:35:19;25.73;;;11.23;;
6105;SDS011;3083;51.508;7.966;2023-02-03T04:37:46;20.20;;;10.33;;
6105;SDS011;3083;51.508;7.966;2023-02-03T04:40:14;20.10;;;10.57;;
6105;SDS011;3083;51.508;7.966;2023-02-03T04:42:41;29.57;;;9.80;;
6105;SDS011;3083;51.508;7.966;2023-02-03T04:45:09;17.27;;;9.00;;
6105;SDS011;3083;51.508;7.966;2023-02-03T04:47:37;23.37;;;9.80;;
6105;SDS011;3083;51.508;7.966;2023-02-03T04:50:04;26.50;;;9.90;;
6105;SDS011;3083;51.508;7.966;2023-02-03T04:52:32;19.00;;;10.23;;
6105;SDS011;3083;51.508;7.966;2023-02-03T04:54:59;20.60;;;10.03;;
6105;SDS011;3083;51.508;7.966;2023-02-03T04:57:29;20.43;;;9.20;;
6105;SDS011;3083;51.508;7.966;2023-02-03T04:59:56;21.27;;;10.20;;
6105;SDS011;3083;51.508;7.966;2023-02-03T05:02:23;19.77;;;9.63;;
6105;SDS011;3083;51.508;7.966;2023-02-03T05:04:50;18.33;;;9.53;;
6105;SDS011;3083;51.508;7.966;2023-02-03T05:07:17;21.43;;;9.90;;
6105;SDS011;3083;51.508;7.966;2023-02-03T05:09:44;25.43;;;10.10;;
6105;SDS011;3083;51.508;7.966;2023-02-03T05:12:11;17.37;;;7.63;;
6105;SDS011;3083;51.508;7.966;2023-02-03T05:14:40;23.57;;;9.07;;
6105;SDS011;3083;51.508;7.966;2023-02-03T05:17:07;22.73;;;9.13;;
6105;SDS011;3083;51.508;7.966;2023-02-03T05:19:34;24.10;;;10.60;;
6105;SDS011;3083;51.508;7.966;2023-02-03T05:22:01;25.67;;;9.60;;
6105;SDS011;3083;51.508;7.966;2023-02-03T05:24:28;20.00;;;10.10;;
6105;SDS011;3083;51.508;7.966;2023-02-03T05:26:55;19.17;;;10.03;;
6105;SDS011;3083;51.508;7.966;2023-02-03T05:29:22;17.33;;;9.37;;
6105;SDS011;3083;51.508;7.966;2023-02-03T05:31:50;18.40;;;10.20;;
6105;SDS011;3083;51.508;7.966;2023-02-03T05:34:19;16.00;;;9.40;;
6105;SDS011;3083;51.508;7.966;2023-02-03T05:36:46;23.47;;;9.70;;
6105;SDS011;3083;51.508;7.966;2023-02-03T05:39:13;18.37;;;9.13;;
6105;SDS011;3083;51.508;7.966;2023-02-03T05:41:39;21.00;;;10.33;;
6105;SDS011;3083;51.508;7.966;2023-02-03T05:44:17;17.87;;;9.67;;
6105;SDS011;3083;51.508;7.966;2023-02-03T05:46:44;17.53;;;9.13;;
6105;SDS011;3083;51.508;7.966;2023-02-03T05:49:13;17.07;;;9.60;;
6105;SDS011;3083;51.508;7.966;2023-02-03T05:51:40;16.60;;;8.80;;
6105;SDS011;3083;51.508;7.966;2023-02-03T05:54:07;18.03;;;9.60;;
6105;SDS011;3083;51.508;7.966;2023-02-03T05:56:34;19.50;;;9.30;;
6105;SDS011;3083;51.508;7.966;2023-02-03T05:59:02;20.53;;;9.43;;
6105;SDS011;3083;51.508;7.966;2023-02-03T06:01:29;20.40;;;9.03;;
6105;SDS011;3083;51.508;7.966;2023-02-03T06:03:56;17.93;;;9.30;;
6105;SDS011;3083;51.508;7.966;2023-02-03T06:06:25;18.23;;;8.90;;
6105;SDS011;3083;51.508;7.966;2023-02-03T06:08:57;21.20;;;8.90;;
6105;SDS011;3083;51.508;7.966;2023-02-03T06:11:24;18.33;;;9.60;;
6105;SDS011;3083;51.508;7.966;2023-02-03T06:13:52;20.20;;;8.40;;
6105;SDS011;3083;51.508;7.966;2023-02-03T06:16:19;19.03;;;9.70;;
6105;SDS011;3083;51.508;7.966;2023-02-03T06:18:48;18.37;;;9.47;;
6105;SDS011;3083;51.508;7.966;2023-02-03T06:21:15;15.67;;;8.50;;
6105;SDS011;3083;51.508;7.966;2023-02-03T06:23:44;19.90;;;9.43;;
6105;SDS011;3083;51.508;7.966;2023-02-03T06:26:11;17.77;;;8.57;;
6105;SDS011;3083;51.508;7.966;2023-02-03T06:28:38;16.10;;;9.40;;
6105;SDS011;3083;51.508;7.966;2023-02-03T06:31:05;17.13;;;8.90;;
6105;SDS011;3083;51.508;7.966;2023-02-03T06:33:32;18.70;;;8.87;;
6105;SDS011;3083;51.508;7.966;2023-02-03T06:35:59;15.70;;;8.43;;
6105;SDS011;3083;51.508;7.966;2023-02-03T06:38:26;16.47;;;8.53;;
6105;SDS011;3083;51.508;7.966;2023-02-03T06:40:54;16.60;;;8.83;;
6105;SDS011;3083;51.508;7.966;2023-02-03T06:43:22;16.53;;;8.83;;
6105;SDS011;3083;51.508;7.966;2023-02-03T06:45:49;21.23;;;9.63;;
6105;SDS011;3083;51.508;7.966;2023-02-03T06:48:16;17.10;;;8.80;;
6105;SDS011;3083;51.508;7.966;2023-02-03T06:50:43;18.73;;;8.87;;
6105;SDS011;3083;51.508;7.966;2023-02-03T06:53:10;17.50;;;8.43;;
6105;SDS011;3083;51.508;7.966;2023-02-03T06:55:37;16.80;;;9.13;;
6105;SDS011;3083;51.508;7.966;2023-02-03T06:58:05;16.83;;;8.13;;
6105;SDS011;3083;51.508;7.966;2023-02-03T07:00:32;23.47;;;9.93;;
6105;SDS011;3083;51.508;7.966;2023-02-03T07:02:59;18.17;;;8.83;;
6105;SDS011;3083;51.508;7.966;2023-02-03T07:05:27;15.17;;;8.40;;
6105;SDS011;3083;51.508;7.966;2023-02-03T07:07:54;24.60;;;9.87;;
6105;SDS011;3083;51.508;7.966;2023-02-03T07:10:21;23.17;;;10.50;;
6105;SDS011;3083;51.508;7.966;2023-02-03T07:12:47;18.40;;;9.80;;
6105;SDS011;3083;51.508;7.966;2023-02-03T07:15:17;21.03;;;10.23;;
6105;SDS011;3083;51.508;7.966;2023-02-03T07:17:45;16.73;;;9.00;;
6105;SDS011;3083;51.508;7.966;2023-02-03T07:20:18;21.00;;;10.63;;
6105;SDS011;3083;51.508;7.966;2023-02-03T07:22:50;24.10;;;10.27;;
6105;SDS011;3083;51.508;7.966;2023-02-03T07:25:17;23.07;;;11.10;;
6105;SDS011;3083;51.508;7.966;2023-02-03T07:27:44;19.40;;;11.07;;
6105;SDS011;3083;51.508;7.966;2023-02-03T07:30:11;22.40;;;11.23;;
6105;SDS011;3083;51.508;7.966;2023-02-03T07:32:40;24.53;;;10.90;;
6105;SDS011;3083;51.508;7.966;2023-02-03T07:35:11;25.83;;;11.10;;
6105;SDS011;3083;51.508;7.966;2023-02-03T07:37:38;20.40;;;10.27;;
6105;SDS011;3083;51.508;7.966;2023-02-03T07:40:05;20.40;;;10.93;;
6105;SDS011;3083;51.508;7.966;2023-02-03T07:42:32;20.33;;;10.87;;
6105;SDS011;3083;51.508;7.966;2023-02-03T07:44:59;20.37;;;11.33;;
6105;SDS011;3083;51.508;7.966;2023-02-03T07:47:26;19.53;;;11.20;;
6105;SDS011;3083;51.508;7.966;2023-02-03T07:49:54;23.40;;;11.47;;
6105;SDS011;3083;51.508;7.966;2023-02-03T07:52:23;25.93;;;12.30;;
6105;SDS011;3083;51.508;7.966;2023-02-03T07:54:50;17.70;;;9.10;;
6105;SDS011;3083;51.508;7.966;2023-02-03T07:57:17;24.43;;;10.10;;
6105;SDS011;3083;51.508;7.966;2023-02-03T07:59:46;20.60;;;10.10;;
6105;SDS011;3083;51.508;7.966;2023-02-03T08:02:16;25.40;;;11.47;;
6105;SDS011;3083;51.508;7.966;2023-02-03T08:04:47;25.80;;;11.30;;
6105;SDS011;3083;51.508;7.966;2023-02-03T08:07:15;20.57;;;11.57;;
6105;SDS011;3083;51.508;7.966;2023-02-03T08:09:42;22.53;;;12.37;;
6105;SDS011;3083;51.508;7.966;2023-02-03T08:12:12;27.77;;;11.70;;
6105;SDS011;3083;51.508;7.966;2023-02-03T08:14:39;26.73;;;13.10;;
6105;SDS011;3083;51.508;7.966;2023-02-03T08:17:08;30.20;;;13.50;;
6105;SDS011;3083;51.508;7.966;2023-02-03T08:19:34;27.10;;;13.30;;
6105;SDS011;3083;51.508;7.966;2023-02-03T08:22:03;26.03;;;11.97;;
6105;SDS011;3083;51.508;7.966;2023-02-03T08:24:32;23.07;;;12.87;;
6105;SDS011;3083;51.508;7.966;2023-02-03T08:26:59;30.50;;;12.90;;
6105;SDS011;3083;51.508;7.966;2023-02-03T08:29:26;25.37;;;13.33;;
6105;SDS011;3083;51.508;7.966;2023-02-03T08:31:57;25.87;;;13.20;;
6105;SDS011;3083;51.508;7.966;2023-02-03T08:34:26;28.67;;;14.10;;
6105;SDS011;3083;51.508;7.966;2023-02-03T08:36:56;28.07;;;12.87;;
6105;SDS011;3083;51.508;7.966;2023-02-03T08:39:23;27.40;;;13.73;;
6105;SDS011;3083;51.508;7.966;2023-02-03T08:41:52;35.13;;;13.27;;
6105;SDS011;3083;51.508;7.966;2023-02-03T08:44:19;33.60;;;15.87;;
6105;SDS011;3083;51.508;7.966;2023-02-03T08:46:48;29.80;;;15.57;;
6105;SDS011;3083;51.508;7.966;2023-02-03T08:49:16;25.80;;;12.73;;
6105;SDS011;3083;51.508;7.966;2023-02-03T08:51:44;31.17;;;13.67;;
6105;SDS011;3083;51.508;7.966;2023-02-03T08:54:15;26.20;;;12.97;;
6105;SDS011;3083;51.508;7.966;2023-02-03T08:56:41;32.07;;;13.67;;
6105;SDS011;3083;51.508;7.966;2023-02-03T08:59:10;29.10;;;13.23;;
6105;SDS011;3083;51.508;7.966;2023-02-03T09:01:38;27.13;;;13.63;;
6105;SDS011;3083;51.508;7.966;2023-02-03T09:04:08;22.67;;;11.30;;
6105;SDS011;3083;51.508;7.966;2023-02-03T09:06:35;31.10;;;12.93;;
6105;SDS011;3083;51.508;7.966;2023-02-03T09:09:04;31.57;;;12.97;;
6105;SDS011;3083;51.508;7.966;2023-02-03T09:11:34;28.40;;;13.57;;
6105;SDS011;3083;51.508;7.966;2023-02-03T09:14:01;23.13;;;11.47;;
6105;SDS011;3083;51.508;7.966;2023-02-03T09:16:29;26.33;;;12.33;;
6105;SDS011;3083;51.508;7.966;2023-02-03T09:18:56;25.03;;;12.13;;
6105;SDS011;3083;51.508;7.966;2023-02-03T09:21:23;26.90;;;12.40;;
6105;SDS011;3083;51.508;7.966;2023-02-03T09:23:52;33.90;;;13.53;;
6105;SDS011;3083;51.508;7.966;2023-02-03T09:26:25;32.33;;;14.23;;
6105;SDS011;3083;51.508;7.966;2023-02-03T09:28:54;34.10;;;14.30;;
6105;SDS011;3083;51.508;7.966;2023-02-03T09:31:26;29.40;;;14.70;;
6105;SDS011;3083;51.508;7.966;2023-02-03T09:33:55;28.70;;;13.67;;
6105;SDS011;3083;51.508;7.966;2023-02-03T09:36:24;32.93;;;15.80;;
6105;SDS011;3083;51.508;7.966;2023-02-03T09:38:51;34.83;;;16.20;;
6105;SDS011;3083;51.508;7.966;2023-02-03T09:41:22;31.60;;;14.30;;
6105;SDS011;3083;51.508;7.966;2023-02-03T09:44:02;29.57;;;12.57;;
6105;SDS011;3083;51.508;7.966;2023-02-03T09:46:37;36.47;;;15.57;;
6105;SDS011;3083;51.508;7.966;2023-02-03T09:49:11;30.77;;;15.57;;
6105;SDS011;3083;51.508;7.966;2023-02-03T09:51:47;35.83;;;16.60;;
6105;SDS011;3083;51.508;7.966;2023-02-03T09:54:22;31.23;;;14.77;;
6105;SDS011;3083;51.508;7.966;2023-02-03T09:57:03;30.80;;;15.07;;
6105;SDS011;3083;51.508;7.966;2023-02-03T09:59:36;34.67;;;15.30;;
6105;SDS011;3083;51.508;7.966;2023-02-03T10:02:10;31.30;;;15.40;;
6105;SDS011;3083;51.508;7.966;2023-02-03T10:04:50;33.83;;;12.70;;
6105;SDS011;3083;51.508;7.966;2023-02-03T10:07:25;35.53;;;14.20;;
6105;SDS011;3083;51.508;7.966;2023-02-03T10:10:00;35.90;;;15.93;;
6105;SDS011;3083;51.508;7.966;2023-02-03T10:15:50;29.07;;;13.60;;
6105;SDS011;3083;51.508;7.966;2023-02-03T10:18:26;30.10;;;14.80;;
6105;SDS011;3083;51.508;7.966;2023-02-03T10:21:01;30.87;;;14.83;;
6105;SDS011;3083;51.508;7.966;2023-02-03T10:23:32;30.63;;;14.27;;
6105;SDS011;3083;51.508;7.966;2023-02-03T10:26:02;34.87;;;14.23;;
6105;SDS011;3083;51.508;7.966;2023-02-03T10:28:34;35.80;;;15.10;;
6105;SDS011;3083;51.508;7.966;2023-02-03T10:31:12;34.10;;;14.60;;
6105;SDS011;3083;51.508;7.966;2023-02-03T10:33:42;30.90;;;15.10;;
6105;SDS011;3083;51.508;7.966;2023-02-03T10:36:16;31.60;;;16.27;;
6105;SDS011;3083;51.508;7.966;2023-02-03T10:38:47;29.03;;;13.90;;
6105;SDS011;3083;51.508;7.966;2023-02-03T10:41:24;35.70;;;14.67;;
6105;SDS011;3083;51.508;7.966;2023-02-03T10:43:54;30.97;;;14.87;;
6105;SDS011;3083;51.508;7.966;2023-02-03T10:46:26;29.70;;;14.80;;
6105;SDS011;3083;51.508;7.966;2023-02-03T10:48:58;25.80;;;13.57;;
6105;SDS011;3083;51.508;7.966;2023-02-03T10:51:28;30.53;;;15.60;;
6105;SDS011;3083;51.508;7.966;2023-02-03T10:53:59;31.93;;;14.87;;
6105;SDS011;3083;51.508;7.966;2023-02-03T10:56:28;29.10;;;13.93;;
6105;SDS011;3083;51.508;7.966;2023-02-03T10:58:58;34.10;;;15.10;;
6105;SDS011;3083;51.508;7.966;2023-02-03T11:01:26;32.60;;;14.97;;
6105;SDS011;3083;51.508;7.966;2023-02-03T11:04:05;32.70;;;14.20;;
6105;SDS011;3083;51.508;7.966;2023-02-03T11:06:52;34.97;;;14.80;;
6105;SDS011;3083;51.508;7.966;2023-02-03T11:09:21;31.90;;;16.43;;
6105;SDS011;3083;51.508;7.966;2023-02-03T11:12:15;29.30;;;14.97;;
6105;SDS011;3083;51.508;7.966;2023-02-03T11:14:44;31.27;;;15.00;;
6105;SDS011;3083;51.508;7.966;2023-02-03T11:17:18;31.77;;;15.90;;
6105;SDS011;3083;51.508;7.966;2023-02-03T11:19:47;27.97;;;14.47;;
6105;SDS011;3083;51.508;7.966;2023-02-03T11:22:27;30.00;;;14.90;;
6105;SDS011;3083;51.508;7.966;2023-02-03T11:24:55;36.37;;;14.20;;
6105;SDS011;3083;51.508;7.966;2023-02-03T11:27:23;32.20;;;14.03;;
6105;SDS011;3083;51.508;7.966;2023-02-03T11:30:05;31.20;;;14.30;;
6105;SDS011;3083;51.508;7.966;2023-02-03T11:32:36;23.57;;;12.60;;
6105;SDS011;3083;51.508;7.966;2023-02-03T11:35:13;25.37;;;11.70;;
6105;SDS011;3083;51.508;7.966;2023-02-03T11:37:45;24.63;;;12.37;;
6105;SDS011;3083;51.508;7.966;2023-02-03T11:40:25;30.27;;;16.13;;
6105;SDS011;3083;51.508;7.966;2023-02-03T11:43:03;25.00;;;11.80;;
6105;SDS011;3083;51.508;7.966;2023-02-03T11:45:40;19.43;;;11.10;;
6105;SDS011;3083;51.508;7.966;2023-02-03T11:48:25;26.17;;;10.10;;
6105;SDS011;3083;51.508;7.966;2023-02-03T11:51:01;24.20;;;11.40;;
6105;SDS011;3083;51.508;7.966;2023-02-03T11:53:56;22.23;;;11.70;;
6105;SDS011;3083;51.508;7.966;2023-02-03T11:56:36;23.60;;;11.40;;
6105;SDS011;3083;51.508;7.966;2023-02-03T12:08:01;23.23;;;10.03;;
6105;SDS011;3083;51.508;7.966;2023-02-03T12:10:44;24.13;;;10.33;;
6105;SDS011;3083;51.508;7.966;2023-02-03T12:13:24;22.27;;;10.57;;
6105;SDS011;3083;51.508;7.966;2023-02-03T12:16:12;22.03;;;11.80;;
6105;SDS011;3083;51.508;7.966;2023-02-03T12:18:55;19.20;;;10.03;;
6105;SDS011;3083;51.508;7.966;2023-02-03T12:21:38;20.93;;;12.30;;
6105;SDS011;3083;51.508;7.966;2023-02-03T12:24:23;29.43;;;11.43;;
6105;SDS011;3083;51.508;7.966;2023-02-03T12:27:09;20.30;;;10.53;;
6105;SDS011;3083;51.508;7.966;2023-02-03T12:29:46;18.63;;;9.90;;
6105;SDS011;3083;51.508;7.966;2023-02-03T12:32:21;20.33;;;11.50;;
6105;SDS011;3083;51.508;7.966;2023-02-03T12:34:54;30.13;;;12.60;;
6105;SDS011;3083;51.508;7.966;2023-02-03T12:37:29;21.67;;;11.23;;
6105;SDS011;3083;51.508;7.966;2023-02-03T12:40:03;24.33;;;12.13;;
6105;SDS011;3083;51.508;7.966;2023-02-03T12:42:41;24.40;;;11.33;;
6105;SDS011;3083;51.508;7.966;2023-02-03T12:45:16;22.63;;;10.20;;
6105;SDS011;3083;51.508;7.966;2023-02-03T12:47:48;21.57;;;8.90;;
6105;SDS011;3083;51.508;7.966;2023-02-03T12:50:20;19.53;;;10.37;;
6105;SDS011;3083;51.508;7.966;2023-02-03T12:52:53;15.80;;;7.67;;
6105;SDS011;3083;51.508;7.966;2023-02-03T12:55:26;15.17;;;7.53;;
6105;SDS011;3083;51.508;7.966;2023-02-03T12:58:00;13.67;;;6.73;;
6105;SDS011;3083;51.508;7.966;2023-02-03T13:00:35;19.60;;;8.37;;
6105;SDS011;3083;51.508;7.966;2023-02-03T13:03:11;13.30;;;6.37;;
6105;SDS011;3083;51.508;7.966;2023-02-03T13:05:44;13.53;;;6.93;;
6105;SDS011;3083;51.508;7.966;2023-02-03T13:08:19;16.60;;;6.80;;
6105;SDS011;3083;51.508;7.966;2023-02-03T13:10:52;21.90;;;7.97;;
6105;SDS011;3083;51.508;7.966;2023-02-03T13:13:28;19.03;;;7.63;;
6105;SDS011;3083;51.508;7.966;2023-02-03T13:16:01;18.70;;;7.90;;
6105;SDS011;3083;51.508;7.966;2023-02-03T13:18:34;13.27;;;6.17;;
6105;SDS011;3083;51.508;7.966;2023-02-03T13:21:03;17.93;;;6.53;;
6105;SDS011;3083;51.508;7.966;2023-02-03T13:23:30;17.70;;;5.70;;
6105;SDS011;3083;51.508;7.966;2023-02-03T13:26:06;16.30;;;4.90;;
6105;SDS011;3083;51.508;7.966;2023-02-03T13:28:56;12.00;;;4.67;;
6105;SDS011;3083;51.508;7.966;2023-02-03T13:31:35;12.77;;;4.30;;
6105;SDS011;3083;51.508;7.966;2023-02-03T13:37:26;13.97;;;3.40;;
6105;SDS011;3083;51.508;7.966;2023-02-03T13:40:11;9.10;;;3.60;;
6105;SDS011;3083;51.508;7.966;2023-02-03T13:42:54;16.70;;;4.17;;
6105;SDS011;3083;51.508;7.966;2023-02-03T13:45:26;15.73;;;6.63;;
6105;SDS011;3083;51.508;7.966;2023-02-03T13:47:59;10.30;;;3.87;;
6105;SDS011;3083;51.508;7.966;2023-02-03T13:50:35;12.27;;;3.57;;
6105;SDS011;3083;51.508;7.966;2023-02-03T13:53:04;12.37;;;4.57;;
6105;SDS011;3083;51.508;7.966;2023-02-03T13:55:42;13.83;;;3.80;;
6105;SDS011;3083;51.508;7.966;2023-02-03T13:58:18;17.50;;;5.10;;
6105;SDS011;3083;51.508;7.966;2023-02-03T14:01:26;10.97;;;4.37;;
6105;SDS011;3083;51.508;7.966;2023-02-03T14:03:58;15.97;;;5.37;;
6105;SDS011;3083;51.508;7.966;2023-02-03T14:09:26;19.23;;;7.80;;
6105;SDS011;3083;51.508;7.966;2023-02-03T14:15:27;21.63;;;5.90;;
6105;SDS011;3083;51.508;7.966;2023-02-03T14:17:59;15.70;;;5.53;;
6105;SDS011;3083;51.508;7.966;2023-02-03T14:20:42;18.33;;;5.30;;
6105;SDS011;3083;51.508;7.966;2023-02-03T14:23:24;15.87;;;5.43;;
6105;SDS011;3083;51.508;7.966;2023-02-03T14:25:55;17.30;;;4.90;;
6105;SDS011;3083;51.508;7.966;2023-02-03T14:28:26;17.43;;;5.50;;
6105;SDS011;3083;51.508;7.966;2023-02-03T14:31:04;17.07;;;4.77;;
6105;SDS011;3083;51.508;7.966;2023-02-03T14:36:40;13.10;;;5.10;;
6105;SDS011;3083;51.508;7.966;2023-02-03T14:42:44;17.77;;;6.70;;
6105;SDS011;3083;51.508;7.966;2023-02-03T14:45:50;17.90;;;6.17;;
6105;SDS011;3083;51.508;7.966;2023-02-03T14:48:29;22.13;;;5.60;;
6105;SDS011;3083;51.508;7.966;2023-02-03T14:51:14;22.30;;;4.50;;
6105;SDS011;3083;51.508;7.966;2023-02-03T14:53:57;15.00;;;4.73;;
6105;SDS011;3083;51.508;7.966;2023-02-03T14:56:41;19.50;;;6.50;;
6105;SDS011;3083;51.508;7.966;2023-02-03T14:59:38;18.10;;;5.27;;
6105;SDS011;3083;51.508;7.966;2023-02-03T15:02:10;15.43;;;5.53;;
6105;SDS011;3083;51.508;7.966;2023-02-03T15:04:44;17.87;;;5.10;;
6105;SDS011;3083;51.508;7.966;2023-02-03T15:07:34;18.80;;;4.50;;
6105;SDS011;3083;51.508;7.966;2023-02-03T15:10:12;16.33;;;4.80;;
6105;SDS011;3083;51.508;7.966;2023-02-03T15:12:43;20.63;;;4.87;;
6105;SDS011;3083;51.508;7.966;2023-02-03T15:15:24;21.00;;;5.33;;
6105;SDS011;3083;51.508;7.966;2023-02-03T15:17:53;17.10;;;5.73;;
6105;SDS011;3083;51.508;7.966;2023-02-03T15:20:25;21.03;;;5.70;;
6105;SDS011;3083;51.508;7.966;2023-02-03T15:22:58;20.43;;;4.80;;
6105;SDS011;3083;51.508;7.966;2023-02-03T15:25:28;21.10;;;4.67;;
6105;SDS011;3083;51.508;7.966;2023-02-03T15:28:09;18.80;;;5.80;;
6105;SDS011;3083;51.508;7.966;2023-02-03T15:30:37;26.03;;;6.53;;
6105;SDS011;3083;51.508;7.966;2023-02-03T15:33:08;18.13;;;5.33;;
6105;SDS011;3083;51.508;7.966;2023-02-03T15:35:39;17.00;;;6.10;;
6105;SDS011;3083;51.508;7.966;2023-02-03T15:38:13;17.30;;;6.07;;
6105;SDS011;3083;51.508;7.966;2023-02-03T15:40:46;19.07;;;5.97;;
6105;SDS011;3083;51.508;7.966;2023-02-03T15:43:18;20.77;;;5.80;;
6105;SDS011;3083;51.508;7.966;2023-02-03T15:45:52;22.40;;;6.00;;
6105;SDS011;3083;51.508;7.966;2023-02-03T15:48:27;21.17;;;5.33;;
6105;SDS011;3083;51.508;7.966;2023-02-03T15:51:01;20.73;;;5.80;;